sensor_id;sensor_type;location;lat;lon;timestamp;pressure;altitude;pressure_sealevel;temperature;humidity
56504;BME280;48812;51.606;-0.114;2023-06-26T00:01:24;100908.09;;;23.24;46.46
56504;BME280;48812;51.606;-0.114;2023-06-26T00:03:56;100908.94;;;23.24;46.65
56504;BME280;48812;51.606;-0.114;2023-06-26T00:06:29;100906.34;;;23.23;46.76
56504;BME280;48812;51.606;-0.114;2023-06-26T00:09:01;100906.34;;;23.23;46.59
56504;BME280;48812;51.606;-0.114;2023-06-26T00:11:33;100911.00;;;23.21;46.93
56504;BME280;48812;51.606;-0.114;2023-06-26T00:14:05;100912.94;;;23.18;46.87
56504;BME280;48812;51.606;-0.114;2023-06-26T00:16:38;100914.00;;;23.16;46.91
56504;BME280;48812;51.606;-0.114;2023-06-26T00:19:10;100914.09;;;23.14;46.92
56504;BME280;48812;51.606;-0.114;2023-06-26T00:21:42;100910.66;;;23.12;47.03
56504;BME280;48812;51.606;-0.114;2023-06-26T00:24:19;100912.59;;;23.10;46.79
56504;BME280;48812;51.606;-0.114;2023-06-26T00:26:52;100921.66;;;23.09;47.13
56504;BME280;48812;51.606;-0.114;2023-06-26T00:29:24;100912.81;;;23.07;47.13
56504;BME280;48812;51.606;-0.114;2023-06-26T00:31:56;100924.69;;;23.05;47.15
56504;BME280;48812;51.606;-0.114;2023-06-26T00:34:29;100923.06;;;23.02;46.88
56504;BME280;48812;51.606;-0.114;2023-06-26T00:37:04;100925.09;;;22.98;47.31
56504;BME280;48812;51.606;-0.114;2023-06-26T00:39:36;100915.75;;;22.90;47.00
56504;BME280;48812;51.606;-0.114;2023-06-26T00:42:08;100924.41;;;22.95;47.04
56504;BME280;48812;51.606;-0.114;2023-06-26T00:44:40;100921.94;;;22.92;47.35
56504;BME280;48812;51.606;-0.114;2023-06-26T00:47:14;100925.47;;;22.92;47.33
56504;BME280;48812;51.606;-0.114;2023-06-26T00:49:46;100935.50;;;22.90;47.27
56504;BME280;48812;51.606;-0.114;2023-06-26T00:52:19;100933.03;;;22.87;47.30
56504;BME280;48812;51.606;-0.114;2023-06-26T00:54:51;100934.84;;;22.87;47.19
56504;BME280;48812;51.606;-0.114;2023-06-26T00:57:24;100934.06;;;22.85;47.48
56504;BME280;48812;51.606;-0.114;2023-06-26T00:59:58;100928.88;;;22.81;47.40
56504;BME280;48812;51.606;-0.114;2023-06-26T01:02:30;100934.50;;;22.78;47.24
56504;BME280;48812;51.606;-0.114;2023-06-26T01:05:06;100937.50;;;22.74;47.38
56504;BME280;48812;51.606;-0.114;2023-06-26T01:07:39;100943.94;;;22.71;47.44
56504;BME280;48812;51.606;-0.114;2023-06-26T01:10:12;100947.63;;;22.70;47.34
56504;BME280;48812;51.606;-0.114;2023-06-26T01:12:44;100955.81;;;22.69;47.53
56504;BME280;48812;51.606;-0.114;2023-06-26T01:15:17;100958.81;;;22.64;47.54
56504;BME280;48812;51.606;-0.114;2023-06-26T01:17:49;100953.44;;;22.64;47.59
56504;BME280;48812;51.606;-0.114;2023-06-26T01:20:23;100959.00;;;22.61;47.76
56504;BME280;48812;51.606;-0.114;2023-06-26T01:25:37;100954.03;;;22.55;48.03
56504;BME280;48812;51.606;-0.114;2023-06-26T01:28:15;100960.28;;;22.55;47.63
56504;BME280;48812;51.606;-0.114;2023-06-26T01:30:49;100969.53;;;22.51;47.67
56504;BME280;48812;51.606;-0.114;2023-06-26T01:33:22;100972.31;;;22.50;47.68
56504;BME280;48812;51.606;-0.114;2023-06-26T01:35:56;100971.56;;;22.48;47.76
56504;BME280;48812;51.606;-0.114;2023-06-26T01:38:28;100980.59;;;22.46;47.95
56504;BME280;48812;51.606;-0.114;2023-06-26T01:41:02;100984.28;;;22.45;47.78
56504;BME280;48812;51.606;-0.114;2023-06-26T01:46:22;100980.03;;;22.41;48.02
56504;BME280;48812;51.606;-0.114;2023-06-26T01:48:59;100981.97;;;22.39;47.90
56504;BME280;48812;51.606;-0.114;2023-06-26T01:51:35;100984.00;;;22.36;48.10
56504;BME280;48812;51.606;-0.114;2023-06-26T01:54:08;100981.22;;;22.37;48.29
56504;BME280;48812;51.606;-0.114;2023-06-26T01:56:42;100993.78;;;22.37;48.20
56504;BME280;48812;51.606;-0.114;2023-06-26T01:59:14;100993.13;;;22.33;48.29
56504;BME280;48812;51.606;-0.114;2023-06-26T02:01:47;100987.00;;;22.31;48.19
56504;BME280;48812;51.606;-0.114;2023-06-26T02:04:20;100988.13;;;22.27;48.27
56504;BME280;48812;51.606;-0.114;2023-06-26T02:06:52;100982.94;;;22.24;48.36
56504;BME280;48812;51.606;-0.114;2023-06-26T02:09:25;100989.41;;;22.21;48.27
56504;BME280;48812;51.606;-0.114;2023-06-26T02:11:57;100993.13;;;22.19;48.48
56504;BME280;48812;51.606;-0.114;2023-06-26T02:14:30;100990.53;;;22.17;48.53
56504;BME280;48812;51.606;-0.114;2023-06-26T02:17:02;100989.78;;;22.15;48.34
56504;BME280;48812;51.606;-0.114;2023-06-26T02:19:34;100986.22;;;22.15;48.79
56504;BME280;48812;51.606;-0.114;2023-06-26T02:22:07;100986.34;;;22.13;48.54
56504;BME280;48812;51.606;-0.114;2023-06-26T02:24:39;100994.47;;;22.12;48.57
56504;BME280;48812;51.606;-0.114;2023-06-26T02:27:11;100996.41;;;22.09;48.70
56504;BME280;48812;51.606;-0.114;2023-06-26T02:29:43;100998.31;;;22.07;48.79
56504;BME280;48812;51.606;-0.114;2023-06-26T02:32:15;100993.91;;;22.06;48.66
56504;BME280;48812;51.606;-0.114;2023-06-26T02:34:47;101000.22;;;22.05;48.83
56504;BME280;48812;51.606;-0.114;2023-06-26T02:37:19;100996.78;;;22.03;49.01
56504;BME280;48812;51.606;-0.114;2023-06-26T02:39:52;101005.81;;;22.02;48.82
56504;BME280;48812;51.606;-0.114;2023-06-26T02:42:24;101007.75;;;22.00;49.02
56504;BME280;48812;51.606;-0.114;2023-06-26T02:44:56;101000.59;;;21.99;48.92
56504;BME280;48812;51.606;-0.114;2023-06-26T02:47:29;101011.59;;;21.96;48.85
56504;BME280;48812;51.606;-0.114;2023-06-26T02:50:01;101006.50;;;21.91;49.09
56504;BME280;48812;51.606;-0.114;2023-06-26T02:52:44;101018.22;;;21.90;48.97
56504;BME280;48812;51.606;-0.114;2023-06-26T02:55:16;101019.28;;;21.88;49.10
56504;BME280;48812;51.606;-0.114;2023-06-26T02:57:48;101020.22;;;21.87;49.14
56504;BME280;48812;51.606;-0.114;2023-06-26T03:00:20;101015.78;;;21.86;49.03
56504;BME280;48812;51.606;-0.114;2023-06-26T03:02:55;101026.75;;;21.83;49.10
56504;BME280;48812;51.606;-0.114;2023-06-26T03:05:27;101033.13;;;21.82;49.19
56504;BME280;48812;51.606;-0.114;2023-06-26T03:08:00;101026.06;;;21.79;49.25
56504;BME280;48812;51.606;-0.114;2023-06-26T03:10:32;101034.25;;;21.78;49.40
56504;BME280;48812;51.606;-0.114;2023-06-26T03:13:04;101036.16;;;21.76;49.33
56504;BME280;48812;51.606;-0.114;2023-06-26T03:15:36;101034.44;;;21.75;49.51
56504;BME280;48812;51.606;-0.114;2023-06-26T03:18:10;101036.44;;;21.71;49.25
56504;BME280;48812;51.606;-0.114;2023-06-26T03:20:42;101040.22;;;21.68;49.42
56504;BME280;48812;51.606;-0.114;2023-06-26T03:23:14;101033.16;;;21.66;49.70
56504;BME280;48812;51.606;-0.114;2023-06-26T03:25:47;101043.16;;;21.64;49.52
56504;BME280;48812;51.606;-0.114;2023-06-26T03:28:31;101044.22;;;21.61;49.48
56504;BME280;48812;51.606;-0.114;2023-06-26T03:31:03;101050.56;;;21.60;49.51
56504;BME280;48812;51.606;-0.114;2023-06-26T03:33:37;101041.59;;;21.60;49.77
56504;BME280;48812;51.606;-0.114;2023-06-26T03:36:09;101046.13;;;21.59;49.56
56504;BME280;48812;51.606;-0.114;2023-06-26T03:38:41;101055.16;;;21.58;49.57
56504;BME280;48812;51.606;-0.114;2023-06-26T03:41:13;101058.81;;;21.57;49.75
56504;BME280;48812;51.606;-0.114;2023-06-26T03:43:46;101054.47;;;21.54;49.58
56504;BME280;48812;51.606;-0.114;2023-06-26T03:46:23;101066.22;;;21.53;49.64
56504;BME280;48812;51.606;-0.114;2023-06-26T03:48:55;101053.72;;;21.52;49.87
56504;BME280;48812;51.606;-0.114;2023-06-26T03:51:27;101051.09;;;21.51;49.80
56504;BME280;48812;51.606;-0.114;2023-06-26T03:53:59;101052.06;;;21.50;49.94
56504;BME280;48812;51.606;-0.114;2023-06-26T03:56:32;101057.66;;;21.47;49.75
56504;BME280;48812;51.606;-0.114;2023-06-26T03:59:04;101055.03;;;21.45;49.91
56504;BME280;48812;51.606;-0.114;2023-06-26T04:01:37;101058.69;;;21.44;49.88
56504;BME280;48812;51.606;-0.114;2023-06-26T04:04:10;101065.91;;;21.44;50.01
56504;BME280;48812;51.606;-0.114;2023-06-26T04:06:42;101065.09;;;21.42;49.87
56504;BME280;48812;51.606;-0.114;2023-06-26T04:09:14;101075.00;;;21.41;50.04
56504;BME280;48812;51.606;-0.114;2023-06-26T04:11:46;101075.97;;;21.40;49.97
56504;BME280;48812;51.606;-0.114;2023-06-26T04:14:21;101085.94;;;21.38;50.08
56504;BME280;48812;51.606;-0.114;2023-06-26T04:16:53;101084.41;;;21.34;50.28
56504;BME280;48812;51.606;-0.114;2023-06-26T04:19:25;101084.41;;;21.34;50.17
56504;BME280;48812;51.606;-0.114;2023-06-26T04:21:58;101084.47;;;21.32;50.23
56504;BME280;48812;51.606;-0.114;2023-06-26T04:24:30;101080.03;;;21.31;50.02
56504;BME280;48812;51.606;-0.114;2023-06-26T04:27:02;101076.59;;;21.29;50.45
56504;BME280;48812;51.606;-0.114;2023-06-26T04:29:35;101071.38;;;21.26;50.19
56504;BME280;48812;51.606;-0.114;2023-06-26T04:32:07;101069.63;;;21.25;50.26
56504;BME280;48812;51.606;-0.114;2023-06-26T04:34:39;101080.41;;;21.25;50.37
56504;BME280;48812;51.606;-0.114;2023-06-26T04:37:14;101083.16;;;21.24;50.44
56504;BME280;48812;51.606;-0.114;2023-06-26T04:39:50;101103.78;;;21.23;50.46
56504;BME280;48812;51.606;-0.114;2023-06-26T04:42:22;101101.28;;;21.20;50.44
56504;BME280;48812;51.606;-0.114;2023-06-26T04:44:54;101099.56;;;21.19;50.65
56504;BME280;48812;51.606;-0.114;2023-06-26T04:47:26;101103.19;;;21.18;50.41
56504;BME280;48812;51.606;-0.114;2023-06-26T04:49:58;101097.91;;;21.16;50.64
56504;BME280;48812;51.606;-0.114;2023-06-26T04:52:30;101093.59;;;21.14;50.55
56504;BME280;48812;51.606;-0.114;2023-06-26T04:55:03;101093.59;;;21.14;50.66
56504;BME280;48812;51.606;-0.114;2023-06-26T04:57:35;101097.22;;;21.13;50.82
56504;BME280;48812;51.606;-0.114;2023-06-26T05:00:07;101103.44;;;21.13;50.72
56504;BME280;48812;51.606;-0.114;2023-06-26T05:02:42;101098.06;;;21.13;50.76
56504;BME280;48812;51.606;-0.114;2023-06-26T05:05:15;101099.06;;;21.12;50.73
56504;BME280;48812;51.606;-0.114;2023-06-26T05:07:47;101095.47;;;21.12;50.80
56504;BME280;48812;51.606;-0.114;2023-06-26T05:10:19;101098.16;;;21.12;51.03
56504;BME280;48812;51.606;-0.114;2023-06-26T05:12:51;101098.25;;;21.10;50.76
56504;BME280;48812;51.606;-0.114;2023-06-26T05:15:23;101107.38;;;21.08;50.98
56504;BME280;48812;51.606;-0.114;2023-06-26T05:17:55;101107.53;;;21.05;50.94
56504;BME280;48812;51.606;-0.114;2023-06-26T05:20:27;101112.06;;;21.04;51.05
56504;BME280;48812;51.606;-0.114;2023-06-26T05:23:01;101124.69;;;21.02;51.29
56504;BME280;48812;51.606;-0.114;2023-06-26T05:25:33;101115.88;;;21.00;51.12
56504;BME280;48812;51.606;-0.114;2023-06-26T05:28:06;101128.44;;;20.99;51.13
56504;BME280;48812;51.606;-0.114;2023-06-26T05:30:40;101124.00;;;20.98;51.20
56504;BME280;48812;51.606;-0.114;2023-06-26T05:33:13;101126.69;;;20.98;51.30
56504;BME280;48812;51.606;-0.114;2023-06-26T05:35:47;101129.47;;;20.97;51.38
56504;BME280;48812;51.606;-0.114;2023-06-26T05:38:20;101142.06;;;20.96;51.26
56504;BME280;48812;51.606;-0.114;2023-06-26T05:40:52;101146.66;;;20.94;51.42
56504;BME280;48812;51.606;-0.114;2023-06-26T05:43:25;101148.53;;;20.92;51.51
56504;BME280;48812;51.606;-0.114;2023-06-26T05:46:00;101145.97;;;20.91;51.47
56504;BME280;48812;51.606;-0.114;2023-06-26T05:48:32;101155.84;;;20.90;51.29
56504;BME280;48812;51.606;-0.114;2023-06-26T05:51:04;101155.84;;;20.90;51.47
56504;BME280;48812;51.606;-0.114;2023-06-26T05:53:38;101151.50;;;20.88;51.57
56504;BME280;48812;51.606;-0.114;2023-06-26T05:56:10;101152.38;;;20.88;51.45
56504;BME280;48812;51.606;-0.114;2023-06-26T05:58:43;101148.75;;;20.89;51.50
56504;BME280;48812;51.606;-0.114;2023-06-26T06:01:15;101145.09;;;20.90;51.41
56504;BME280;48812;51.606;-0.114;2023-06-26T06:03:47;101146.06;;;20.89;51.58
56504;BME280;48812;51.606;-0.114;2023-06-26T06:06:20;101137.00;;;20.90;51.34
56504;BME280;48812;51.606;-0.114;2023-06-26T06:08:52;101147.00;;;20.88;51.48
56504;BME280;48812;51.606;-0.114;2023-06-26T06:11:24;101147.94;;;20.87;51.57
56504;BME280;48812;51.606;-0.114;2023-06-26T06:13:57;101157.75;;;20.88;51.73
56504;BME280;48812;51.606;-0.114;2023-06-26T06:16:31;101153.16;;;20.90;51.60
56504;BME280;48812;51.606;-0.114;2023-06-26T06:19:03;101152.19;;;20.91;51.66
56504;BME280;48812;51.606;-0.114;2023-06-26T06:21:36;101152.13;;;20.93;51.70
56504;BME280;48812;51.606;-0.114;2023-06-26T06:24:08;101158.19;;;20.96;51.51
56504;BME280;48812;51.606;-0.114;2023-06-26T06:26:42;101159.94;;;20.97;51.69
56504;BME280;48812;51.606;-0.114;2023-06-26T06:29:14;101166.09;;;20.99;51.63
56504;BME280;48812;51.606;-0.114;2023-06-26T06:31:46;101166.94;;;21.00;51.71
56504;BME280;48812;51.606;-0.114;2023-06-26T06:34:18;101174.16;;;20.99;51.67
56504;BME280;48812;51.606;-0.114;2023-06-26T06:36:51;101185.69;;;21.02;51.73
56504;BME280;48812;51.606;-0.114;2023-06-26T06:39:23;101183.75;;;21.04;51.57
56504;BME280;48812;51.606;-0.114;2023-06-26T06:41:55;101186.38;;;21.05;51.58
56504;BME280;48812;51.606;-0.114;2023-06-26T06:44:27;101185.50;;;21.05;51.53
56504;BME280;48812;51.606;-0.114;2023-06-26T06:47:02;101192.63;;;21.06;51.45
56504;BME280;48812;51.606;-0.114;2023-06-26T06:49:37;101192.63;;;21.06;51.53
56504;BME280;48812;51.606;-0.114;2023-06-26T06:52:09;101196.09;;;21.08;51.53
56504;BME280;48812;51.606;-0.114;2023-06-26T06:54:54;101188.81;;;21.10;51.50
56504;BME280;48812;51.606;-0.114;2023-06-26T06:57:26;101194.19;;;21.10;51.52
56504;BME280;48812;51.606;-0.114;2023-06-26T06:59:58;101190.56;;;21.11;51.43
56504;BME280;48812;51.606;-0.114;2023-06-26T07:02:30;101193.25;;;21.11;51.30
56504;BME280;48812;51.606;-0.114;2023-06-26T07:05:03;101205.72;;;21.12;51.44
56504;BME280;48812;51.606;-0.114;2023-06-26T07:07:36;101197.47;;;21.15;51.55
56504;BME280;48812;51.606;-0.114;2023-06-26T07:10:09;101195.75;;;21.14;51.38
56504;BME280;48812;51.606;-0.114;2023-06-26T07:12:42;101204.69;;;21.14;51.44
56504;BME280;48812;51.606;-0.114;2023-06-26T07:15:16;101219.00;;;21.15;51.46
56504;BME280;48812;51.606;-0.114;2023-06-26T07:17:48;101205.53;;;21.15;51.61
56504;BME280;48812;51.606;-0.114;2023-06-26T07:20:20;101215.38;;;21.16;51.46
56504;BME280;48812;51.606;-0.114;2023-06-26T07:22:53;101215.19;;;21.19;51.49
56504;BME280;48812;51.606;-0.114;2023-06-26T07:25:25;101222.13;;;21.23;51.45
56504;BME280;48812;51.606;-0.114;2023-06-26T07:27:57;101226.50;;;21.26;51.43
56504;BME280;48812;51.606;-0.114;2023-06-26T07:30:29;101226.25;;;21.30;51.18
56504;BME280;48812;51.606;-0.114;2023-06-26T07:33:01;101230.50;;;21.34;51.05
56504;BME280;48812;51.606;-0.114;2023-06-26T07:35:35;101228.56;;;21.36;51.13
56504;BME280;48812;51.606;-0.114;2023-06-26T07:38:07;101229.28;;;21.40;50.94
56504;BME280;48812;51.606;-0.114;2023-06-26T07:40:39;101240.75;;;21.44;51.10
56504;BME280;48812;51.606;-0.114;2023-06-26T07:43:12;101237.97;;;21.45;50.95
56504;BME280;48812;51.606;-0.114;2023-06-26T07:45:44;101231.53;;;21.48;50.92
56504;BME280;48812;51.606;-0.114;2023-06-26T07:48:17;101240.38;;;21.50;51.01
56504;BME280;48812;51.606;-0.114;2023-06-26T07:50:49;101235.88;;;21.50;50.97
56504;BME280;48812;51.606;-0.114;2023-06-26T07:53:21;101246.66;;;21.50;50.88
56504;BME280;48812;51.606;-0.114;2023-06-26T07:55:53;101238.66;;;21.49;50.89
56504;BME280;48812;51.606;-0.114;2023-06-26T20:36:08;101473.50;;;21.33;45.41
56504;BME280;48812;51.606;-0.114;2023-06-26T20:38:41;101483.81;;;21.43;45.43
56504;BME280;48812;51.606;-0.114;2023-06-26T20:41:15;101486.19;;;21.49;45.39
56504;BME280;48812;51.606;-0.114;2023-06-26T20:43:47;101475.09;;;21.55;45.50
56504;BME280;48812;51.606;-0.114;2023-06-26T20:46:21;101475.72;;;21.60;45.42
56504;BME280;48812;51.606;-0.114;2023-06-26T20:49:00;101484.41;;;21.65;45.51
56504;BME280;48812;51.606;-0.114;2023-06-26T20:51:32;101488.66;;;21.69;45.56
56504;BME280;48812;51.606;-0.114;2023-06-26T20:54:05;101486.78;;;21.71;45.47
56504;BME280;48812;51.606;-0.114;2023-06-26T20:56:37;101484.78;;;21.75;45.60
56504;BME280;48812;51.606;-0.114;2023-06-26T20:59:09;101493.56;;;21.79;45.44
56504;BME280;48812;51.606;-0.114;2023-06-26T21:01:42;101495.31;;;21.80;45.73
56504;BME280;48812;51.606;-0.114;2023-06-26T21:04:15;101493.41;;;21.82;45.49
56504;BME280;48812;51.606;-0.114;2023-06-26T21:06:48;101495.13;;;21.83;45.48
56504;BME280;48812;51.606;-0.114;2023-06-26T21:09:21;101500.50;;;21.83;45.48
